createdAt,value
2019-01-19T00:02:25.284Z,96852.22
2019-01-19T00:07:36.080Z,96861.69
2019-01-19T00:12:50.092Z,96866.66
2019-01-19T00:18:17.277Z,96861.34
2019-01-19T00:23:34.619Z,96869.63
2019-01-19T00:28:39.742Z,96863.90
2019-01-19T00:33:39.039Z,96863.58
2019-01-19T00:38:52.825Z,96864.36
2019-01-19T00:43:50.037Z,96869.83
2019-01-19T00:48:54.435Z,96872.07
2019-01-19T00:54:08.575Z,96874.20
2019-01-19T00:59:07.763Z,96878.80
2019-01-19T01:04:33.426Z,96869.90
2019-01-19T01:10:21.118Z,96869.08
2019-01-19T01:15:56.496Z,96868.66
2019-01-19T01:21:22.768Z,96869.90
2019-01-19T01:26:45.852Z,96881.88
2019-01-19T01:31:56.740Z,96884.53
2019-01-19T01:36:58.763Z,96889.27
2019-01-19T01:42:15.894Z,96889.70
2019-01-19T01:47:36.218Z,96893.53
2019-01-19T01:53:05.163Z,96899.81
2019-01-19T01:58:04.344Z,96890.89
2019-01-19T02:03:09.493Z,96893.80
2019-01-19T02:08:11.453Z,96888.05
2019-01-19T02:13:27.169Z,96888.12
2019-01-19T02:19:04.195Z,96887.02
2019-01-19T02:24:11.925Z,96879.20
2019-01-19T02:29:23.203Z,96880.76
2019-01-19T02:34:36.602Z,96877.94
2019-01-19T02:39:41.420Z,96877.21
2019-01-19T02:44:43.307Z,96880.37
2019-01-19T02:49:49.733Z,96879.36
2019-01-19T02:55:18.872Z,96874.47
2019-01-19T03:00:59.026Z,96878.20
2019-01-19T03:06:09.903Z,96868.87
2019-01-19T03:11:43.837Z,96862.22
2019-01-19T03:16:51.906Z,96857.52
2019-01-19T03:22:05.910Z,96850.69
2019-01-19T03:27:13.175Z,96847.58
2019-01-19T03:32:24.037Z,96849.38
2019-01-19T03:37:38.548Z,96842.38
2019-01-19T03:43:04.676Z,96841.45
2019-01-19T03:48:29.188Z,96839.56
2019-01-19T03:53:49.711Z,96835.69
2019-01-19T03:59:03.243Z,96837.83
2019-01-19T04:04:32.171Z,96832.60
2019-01-19T04:09:45.825Z,96833.52
2019-01-19T04:15:19.655Z,96835.77
2019-01-19T04:20:30.246Z,96830.47
2019-01-19T04:25:29.791Z,96825.33
2019-01-19T04:30:24.565Z,96821.56
2019-01-19T04:35:19.186Z,96824.46
2019-01-19T04:40:14.512Z,96819.45
2019-01-19T04:45:09.939Z,96815.55
2019-01-19T04:50:07.064Z,96814.05
2019-01-19T04:55:01.675Z,96813.83
2019-01-19T04:59:56.301Z,96820.36
2019-01-19T05:04:50.940Z,96816.55
2019-01-19T05:09:45.640Z,96818.41
2019-01-19T05:14:40.265Z,96814.49
2019-01-19T05:19:34.889Z,96815.93
2019-01-19T05:24:29.491Z,96817.06
2019-01-19T05:29:24.107Z,96812.77
2019-01-19T05:34:18.730Z,96811.57
2019-01-19T05:39:13.350Z,96805.06
2019-01-19T05:44:07.968Z,96804.98
2019-01-19T05:49:02.597Z,96805.51
2019-01-19T05:53:57.210Z,96805.84
2019-01-19T05:58:51.836Z,96803.33
2019-01-19T06:03:46.449Z,96806.17
2019-01-19T06:08:41.094Z,96805.25
2019-01-19T06:13:35.706Z,96804.80
2019-01-19T06:18:31.988Z,96811.12
2019-01-19T06:23:26.653Z,96805.04
2019-01-19T06:28:21.299Z,96808.89
2019-01-19T06:33:15.937Z,96810.23
2019-01-19T06:38:10.556Z,96805.27
2019-01-19T06:43:05.244Z,96806.91
2019-01-19T06:47:59.877Z,96809.34
2019-01-19T06:52:54.549Z,96812.48
2019-01-19T06:57:49.283Z,96814.05
2019-01-19T07:02:44.012Z,96814.84
2019-01-19T07:07:38.628Z,96808.33
2019-01-19T07:12:33.275Z,96806.34
2019-01-19T07:17:27.986Z,96812.31
2019-01-19T07:22:22.606Z,96809.28
2019-01-19T07:27:17.223Z,96815.72
2019-01-19T07:32:11.961Z,96817.30
2019-01-19T07:37:09.866Z,96810.78
2019-01-19T07:42:03.136Z,96813.86
2019-01-19T07:46:59.020Z,96801.81
2019-01-19T07:51:53.667Z,96811.62
2019-01-19T07:56:48.343Z,96806.70
2019-01-19T08:01:42.963Z,96816.48
2019-01-19T08:06:37.578Z,96812.78
2019-01-19T08:11:32.199Z,96816.61
2019-01-19T08:16:26.783Z,96818.09
2019-01-19T08:21:21.404Z,96817.97
2019-01-19T08:26:16.010Z,96819.77
2019-01-19T08:31:10.619Z,96832.17
2019-01-19T08:36:05.926Z,96824.32
2019-01-19T08:41:00.581Z,96824.95
2019-01-19T08:45:55.192Z,96826.92
2019-01-19T08:50:49.873Z,96824.02
2019-01-19T08:55:44.551Z,96825.30
2019-01-19T09:00:39.161Z,96817.89
2019-01-19T09:05:33.771Z,96833.55
2019-01-19T09:10:28.534Z,96832.91
2019-01-19T09:15:25.952Z,96828.69
2019-01-19T09:20:20.719Z,96841.25
2019-01-19T09:25:18.432Z,96834.46
2019-01-19T09:30:17.415Z,96835.22
2019-01-19T09:35:12.649Z,96835.89
2019-01-19T09:40:17.250Z,96842.17
2019-01-19T09:45:15.381Z,96842.88
2019-01-19T09:50:17.337Z,96845.13
2019-01-19T09:55:12.230Z,96855.94
2019-01-19T10:00:26.509Z,96846.71
2019-01-19T10:05:28.619Z,96843.25
2019-01-19T10:10:23.463Z,96840.45
2019-01-19T10:15:20.364Z,96842.20
2019-01-19T10:20:27.696Z,96832.43
2019-01-19T10:25:22.417Z,96827.52
2019-01-19T10:30:29.059Z,96831.22
2019-01-19T10:35:23.683Z,96825.97
2019-01-19T10:40:19.396Z,96820.68
2019-01-19T10:45:23.912Z,96819.94
2019-01-19T10:50:20.325Z,96810.42
2019-01-19T10:55:23.204Z,96804.91
2019-01-19T11:00:33.925Z,96809.48
2019-01-19T11:05:29.346Z,96797.09
2019-01-19T11:10:33.415Z,96797.34
2019-01-19T11:15:30.727Z,96787.21
2019-01-19T11:20:31.487Z,96780.48
2019-01-19T11:25:26.512Z,96775.81
2019-01-19T11:30:28.330Z,96774.30
2019-01-19T11:35:23.919Z,96763.16
2019-01-19T11:40:26.589Z,96758.92
2019-01-19T11:45:23.665Z,96748.11
2019-01-19T11:50:19.160Z,96736.63
2019-01-19T11:55:19.043Z,96738.56
2019-01-19T12:00:24.606Z,96732.94
2019-01-19T12:05:19.411Z,96723.00
2019-01-19T12:10:30.313Z,96728.55
2019-01-19T12:15:25.622Z,96730.95
2019-01-19T12:20:35.981Z,96723.55
2019-01-19T12:25:31.067Z,96707.20
2019-01-19T12:30:30.245Z,96697.09
2019-01-19T12:35:25.777Z,96694.08
2019-01-19T12:40:26.911Z,96700.05
2019-01-19T12:45:32.688Z,96697.38
2019-01-19T12:50:28.800Z,96686.66
2019-01-19T12:55:24.174Z,96682.56
2019-01-19T13:00:23.486Z,96677.41
2019-01-19T13:05:23.249Z,96674.33
2019-01-19T13:10:25.787Z,96676.65
2019-01-19T13:15:52.029Z,96658.33
2019-01-19T13:21:23.852Z,96652.23
2019-01-19T13:26:51.303Z,96649.38
2019-01-19T13:32:18.518Z,96643.50
2019-01-19T13:37:43.022Z,96634.39
2019-01-19T13:42:56.676Z,96634.91
2019-01-19T13:48:07.560Z,96637.42
2019-01-19T13:53:30.479Z,96640.66
2019-01-19T13:58:46.296Z,96630.91
2019-01-19T14:04:07.977Z,96631.61
2019-01-19T14:09:12.884Z,96620.12
2019-01-19T14:14:47.941Z,96622.14
2019-01-19T14:19:52.701Z,96613.19
2019-01-19T14:24:57.846Z,96615.25
2019-01-19T14:30:28.463Z,96611.73
2019-01-19T14:35:33.582Z,96606.45
2019-01-19T14:40:47.508Z,96608.22
2019-01-19T14:45:46.733Z,96609.67
2019-01-19T14:51:14.579Z,96611.55
2019-01-19T14:56:30.321Z,96607.82
2019-01-19T15:02:05.183Z,96605.28
2019-01-19T15:07:35.657Z,96598.92
2019-01-19T15:12:43.935Z,96594.47
2019-01-19T15:17:43.158Z,96595.97
2019-01-19T15:22:53.994Z,96597.55
2019-01-19T15:28:29.225Z,96591.42
2019-01-19T15:33:58.483Z,96595.00
2019-01-19T15:38:57.675Z,96583.05
2019-01-19T15:44:31.502Z,96591.11
2019-01-19T15:49:48.863Z,96586.98
2019-01-19T15:55:02.806Z,96592.13
2019-01-19T16:00:23.095Z,96575.69
2019-01-19T16:05:37.141Z,96588.97
2019-01-19T16:10:42.191Z,96575.93
2019-01-19T16:15:52.998Z,96587.70
2019-01-19T16:21:06.812Z,96585.75
2019-01-19T16:26:29.787Z,96585.61
2019-01-19T16:31:34.544Z,96583.84
2019-01-19T16:36:54.168Z,96588.50
2019-01-19T16:42:10.710Z,96590.28
2019-01-19T16:47:34.063Z,96579.50
2019-01-19T16:52:50.934Z,96582.56
2019-01-19T16:58:08.307Z,96578.37
2019-01-19T17:03:13.440Z,96576.61
2019-01-19T17:08:27.279Z,96582.55
2019-01-19T17:13:28.950Z,96573.86
2019-01-19T17:18:33.747Z,96576.27
2019-01-19T17:23:47.982Z,96579.83
2019-01-19T17:29:16.082Z,96573.86
2019-01-19T17:34:42.605Z,96567.12
2019-01-19T17:39:50.640Z,96570.17
2019-01-19T17:45:10.598Z,96572.26
2019-01-19T17:50:33.131Z,96579.66
2019-01-19T17:56:02.500Z,96573.69
2019-01-19T18:01:30.108Z,96574.52
2019-01-19T18:06:40.827Z,96578.05
2019-01-19T18:12:09.970Z,96577.90
2019-01-19T18:17:23.295Z,96570.95
2019-01-19T18:22:34.357Z,96565.01
2019-01-19T18:27:33.567Z,96570.47
2019-01-19T18:32:53.577Z,96561.94
2019-01-19T18:38:10.317Z,96564.70
2019-01-19T18:43:18.350Z,96567.58
2019-01-19T18:48:20.352Z,96568.72
2019-01-19T18:53:37.232Z,96565.80
2019-01-19T18:59:04.976Z,96569.37
2019-01-19T19:04:19.372Z,96570.00
2019-01-19T19:09:36.573Z,96568.03
2019-01-19T19:14:41.188Z,96557.43
2019-01-19T19:19:58.507Z,96559.38
2019-01-19T19:25:25.952Z,96552.27
2019-01-19T19:30:25.136Z,96552.45
2019-01-19T19:35:46.726Z,96554.88
2019-01-19T19:41:14.384Z,96548.77
2019-01-19T19:46:19.506Z,96559.23
2019-01-19T19:51:37.844Z,96560.35
2019-01-19T19:56:30.746Z,96563.88
2019-01-19T20:01:25.434Z,96564.00
2019-01-19T20:06:20.131Z,96568.83
2019-01-19T20:11:14.854Z,96565.11
2019-01-19T20:16:09.824Z,96571.84
2019-01-19T20:21:04.555Z,96570.20
2019-01-19T20:25:59.181Z,96570.33
2019-01-19T20:30:53.813Z,96571.74
2019-01-19T20:35:48.453Z,96564.98
2019-01-19T20:40:43.059Z,96564.32
2019-01-19T20:45:37.742Z,96566.18
2019-01-19T20:50:32.361Z,96563.61
2019-01-19T20:55:27.062Z,96565.60
2019-01-19T21:00:22.192Z,96563.24
2019-01-19T21:05:16.883Z,96563.32
2019-01-19T21:10:11.808Z,96561.88
2019-01-19T21:15:15.247Z,96564.60
2019-01-19T21:20:14.013Z,96566.23
2019-01-19T21:25:11.530Z,96565.44
2019-01-19T21:30:10.746Z,96550.65
2019-01-19T21:35:07.490Z,96556.41
2019-01-19T21:40:02.119Z,96554.38
2019-01-19T21:44:56.785Z,96552.14
2019-01-19T21:49:51.411Z,96553.81
2019-01-19T21:54:46.082Z,96553.33
2019-01-19T21:59:40.742Z,96550.97
2019-01-19T22:04:35.396Z,96559.36
2019-01-19T22:09:30.008Z,96549.77
2019-01-19T22:14:24.679Z,96554.56
2019-01-19T22:19:19.304Z,96554.73
2019-01-19T22:24:13.908Z,96559.41
2019-01-19T22:29:08.763Z,96559.82
2019-01-19T22:34:03.436Z,96557.80
2019-01-19T22:38:58.118Z,96559.97
2019-01-19T22:43:52.759Z,96559.30
2019-01-19T22:48:47.385Z,96553.34
2019-01-19T22:53:41.984Z,96548.53
2019-01-19T22:58:36.680Z,96556.47
2019-01-19T23:03:33.378Z,96552.00
2019-01-19T23:08:28.071Z,96553.16
2019-01-19T23:13:22.697Z,96550.58
2019-01-19T23:18:17.433Z,96554.94
2019-01-19T23:23:12.088Z,96549.75
2019-01-19T23:28:06.788Z,96542.05
2019-01-19T23:33:01.421Z,96540.55
2019-01-19T23:37:56.042Z,96545.56
2019-01-19T23:42:50.716Z,96539.77
2019-01-19T23:47:45.340Z,96537.91
2019-01-19T23:52:40.006Z,96539.58
2019-01-19T23:57:34.705Z,96541.44
